MMCP/CPE METAR and TAF weather

Enter ICAO airport designator
Station Type Date Time Source
MMCP METAR 2021/09/16 10:25 UTC NOAA

MMCP 161025Z RTD 00000KT 7SM SKC 25/24 A2981 RMK RTS


Station Type Date Time Source
MMCP Decoded METAR 2021/09/16 10:25 UTC NOAA

Campeche, Camp., Mexico (MMCP) 19-51N 090-33W
Sep 16, 2021 - 06:25 AM EDT / 2021.09.16 1025 UTC
Wind: Calm:0
Visibility: 7 mile(s):0
Sky conditions: clear
Temperature: 77 F (25 C)
Dew Point: 75 F (24 C)
Relative Humidity: 94%
Pressure (altimeter): 29.81 in. Hg (1009 hPa)
ob: MMCP 161025Z RTD 00000KT 7SM SKC 25/24 A2981 RMK RTS
cycle: 10

Station Type Date Time Source
MMCP TAF 2021/09/16 06:57 UTC NOAA

TAF MMCP 160354Z 1606/1706 08005KT P6SM SCT200
FM161700 36012KT P6SM SCT020
FM162200 03012KT P6SM SCT020 BKN080 PROB40 1622/1702 3SM TSRA BKN020CB
FM170300 08005KT P6SM SCT020 SCT250

Example: see airport list